sensor_id;sensor_type;location;lat;lon;timestamp;pressure;altitude;pressure_sealevel;temperature;humidity
27429;BME280;14881;48.092;11.574;2023-02-13T00:00:35;97287.50;;;1.31;100.00
27429;BME280;14881;48.092;11.574;2023-02-13T00:03:03;97292.31;;;1.36;100.00
27429;BME280;14881;48.092;11.574;2023-02-13T00:05:31;97290.88;;;1.40;100.00
27429;BME280;14881;48.092;11.574;2023-02-13T00:07:59;97290.78;;;1.48;100.00
27429;BME280;14881;48.092;11.574;2023-02-13T00:10:28;97289.88;;;1.41;100.00
27429;BME280;14881;48.092;11.574;2023-02-13T00:12:56;97292.22;;;1.29;100.00
27429;BME280;14881;48.092;11.574;2023-02-13T00:15:23;97288.66;;;1.44;100.00
27429;BME280;14881;48.092;11.574;2023-02-13T00:17:51;97282.47;;;1.43;100.00
27429;BME280;14881;48.092;11.574;2023-02-13T00:20:19;97278.31;;;1.40;100.00
27429;BME280;14881;48.092;11.574;2023-02-13T00:22:47;97276.09;;;1.44;100.00
27429;BME280;14881;48.092;11.574;2023-02-13T00:25:14;97272.78;;;1.42;100.00
27429;BME280;14881;48.092;11.574;2023-02-13T00:27:44;97269.03;;;1.36;100.00
27429;BME280;14881;48.092;11.574;2023-02-13T00:30:12;97276.88;;;1.38;100.00
27429;BME280;14881;48.092;11.574;2023-02-13T00:32:40;97272.53;;;1.37;100.00
27429;BME280;14881;48.092;11.574;2023-02-13T00:35:08;97263.09;;;1.41;100.00
27429;BME280;14881;48.092;11.574;2023-02-13T00:37:36;97269.47;;;1.40;100.00
27429;BME280;14881;48.092;11.574;2023-02-13T00:40:04;97264.50;;;1.37;100.00
27429;BME280;14881;48.092;11.574;2023-02-13T00:42:32;97269.78;;;1.30;100.00
27429;BME280;14881;48.092;11.574;2023-02-13T00:45:01;97267.81;;;1.39;100.00
27429;BME280;14881;48.092;11.574;2023-02-13T00:47:29;97269.41;;;1.33;100.00
27429;BME280;14881;48.092;11.574;2023-02-13T00:49:57;97263.69;;;1.36;100.00
27429;BME280;14881;48.092;11.574;2023-02-13T00:52:24;97263.28;;;1.39;100.00
27429;BME280;14881;48.092;11.574;2023-02-13T00:54:52;97259.66;;;1.47;100.00
27429;BME280;14881;48.092;11.574;2023-02-13T00:57:23;97263.00;;;1.49;100.00
27429;BME280;14881;48.092;11.574;2023-02-13T00:59:51;97261.88;;;1.44;100.00
27429;BME280;14881;48.092;11.574;2023-02-13T01:02:20;97258.66;;;1.48;100.00
27429;BME280;14881;48.092;11.574;2023-02-13T01:04:48;97265.66;;;1.49;100.00
27429;BME280;14881;48.092;11.574;2023-02-13T01:07:16;97259.31;;;1.50;100.00
27429;BME280;14881;48.092;11.574;2023-02-13T01:09:43;97260.97;;;1.51;100.00
27429;BME280;14881;48.092;11.574;2023-02-13T01:12:11;97258.28;;;1.51;100.00
27429;BME280;14881;48.092;11.574;2023-02-13T01:14:39;97259.31;;;1.50;100.00
27429;BME280;14881;48.092;11.574;2023-02-13T01:17:07;97256.88;;;1.55;100.00
27429;BME280;14881;48.092;11.574;2023-02-13T01:19:36;97254.59;;;1.52;100.00
27429;BME280;14881;48.092;11.574;2023-02-13T01:22:03;97262.25;;;1.55;100.00
27429;BME280;14881;48.092;11.574;2023-02-13T01:24:31;97261.59;;;1.53;100.00
27429;BME280;14881;48.092;11.574;2023-02-13T01:26:59;97250.88;;;1.53;100.00
27429;BME280;14881;48.092;11.574;2023-02-13T01:29:28;97251.72;;;1.54;100.00
27429;BME280;14881;48.092;11.574;2023-02-13T01:31:55;97240.19;;;1.53;100.00
27429;BME280;14881;48.092;11.574;2023-02-13T01:34:23;97251.06;;;1.52;100.00
27429;BME280;14881;48.092;11.574;2023-02-13T01:36:52;97247.75;;;1.50;100.00
27429;BME280;14881;48.092;11.574;2023-02-13T01:39:20;97253.56;;;1.53;100.00
27429;BME280;14881;48.092;11.574;2023-02-13T01:41:48;97249.78;;;1.48;100.00
27429;BME280;14881;48.092;11.574;2023-02-13T01:44:48;97254.22;;;1.55;100.00
27429;BME280;14881;48.092;11.574;2023-02-13T01:47:22;97253.94;;;1.50;100.00
27429;BME280;14881;48.092;11.574;2023-02-13T01:49:58;97249.88;;;1.54;100.00
27429;BME280;14881;48.092;11.574;2023-02-13T01:52:29;97251.31;;;1.57;100.00
27429;BME280;14881;48.092;11.574;2023-02-13T01:54:58;97249.56;;;1.64;100.00
27429;BME280;14881;48.092;11.574;2023-02-13T01:57:27;97257.97;;;1.61;100.00
27429;BME280;14881;48.092;11.574;2023-02-13T01:59:59;97253.16;;;1.56;100.00
27429;BME280;14881;48.092;11.574;2023-02-13T02:02:31;97252.94;;;1.51;100.00
27429;BME280;14881;48.092;11.574;2023-02-13T02:05:01;97259.44;;;1.63;100.00
27429;BME280;14881;48.092;11.574;2023-02-13T02:07:32;97258.59;;;1.63;100.00
27429;BME280;14881;48.092;11.574;2023-02-13T02:10:03;97251.53;;;1.55;100.00
27429;BME280;14881;48.092;11.574;2023-02-13T02:12:35;97253.75;;;1.52;100.00
27429;BME280;14881;48.092;11.574;2023-02-13T02:15:06;97255.97;;;1.48;100.00
27429;BME280;14881;48.092;11.574;2023-02-13T02:17:34;97253.28;;;1.48;100.00
27429;BME280;14881;48.092;11.574;2023-02-13T02:20:13;97258.84;;;1.47;100.00
27429;BME280;14881;48.092;11.574;2023-02-13T02:23:01;97260.22;;;1.43;100.00
27429;BME280;14881;48.092;11.574;2023-02-13T02:32:10;97245.72;;;1.52;100.00
27429;BME280;14881;48.092;11.574;2023-02-13T02:34:48;97260.50;;;1.48;100.00
27429;BME280;14881;48.092;11.574;2023-02-13T02:37:29;97262.72;;;1.44;100.00
27429;BME280;14881;48.092;11.574;2023-02-13T02:40:09;97263.91;;;1.42;100.00
27429;BME280;14881;48.092;11.574;2023-02-13T02:42:43;97254.69;;;1.44;100.00
27429;BME280;14881;48.092;11.574;2023-02-13T02:45:22;97255.16;;;1.48;100.00
27429;BME280;14881;48.092;11.574;2023-02-13T02:47:58;97267.63;;;1.40;100.00
27429;BME280;14881;48.092;11.574;2023-02-13T02:50:49;97266.41;;;1.43;100.00
27429;BME280;14881;48.092;11.574;2023-02-13T02:53:28;97270.06;;;1.35;100.00
27429;BME280;14881;48.092;11.574;2023-02-13T02:56:01;97269.69;;;1.38;100.00
27429;BME280;14881;48.092;11.574;2023-02-13T02:58:36;97266.91;;;1.32;100.00
27429;BME280;14881;48.092;11.574;2023-02-13T03:01:24;97265.91;;;1.33;100.00
27429;BME280;14881;48.092;11.574;2023-02-13T03:04:17;97267.19;;;1.22;100.00
27429;BME280;14881;48.092;11.574;2023-02-13T03:07:05;97266.44;;;1.28;100.00
27429;BME280;14881;48.092;11.574;2023-02-13T03:09:36;97260.63;;;1.25;100.00
27429;BME280;14881;48.092;11.574;2023-02-13T03:12:25;97264.44;;;1.16;100.00
27429;BME280;14881;48.092;11.574;2023-02-13T03:15:14;97268.19;;;1.21;100.00
27429;BME280;14881;48.092;11.574;2023-02-13T03:17:42;97265.84;;;1.12;100.00
27429;BME280;14881;48.092;11.574;2023-02-13T03:20:32;97264.28;;;1.17;100.00
27429;BME280;14881;48.092;11.574;2023-02-13T03:23:22;97254.84;;;1.07;100.00
27429;BME280;14881;48.092;11.574;2023-02-13T03:26:12;97258.00;;;1.10;100.00
27429;BME280;14881;48.092;11.574;2023-02-13T03:28:51;97253.38;;;1.04;100.00
27429;BME280;14881;48.092;11.574;2023-02-13T03:31:46;97266.03;;;1.10;100.00
27429;BME280;14881;48.092;11.574;2023-02-13T03:34:20;97257.19;;;0.95;100.00
27429;BME280;14881;48.092;11.574;2023-02-13T03:36:56;97261.03;;;0.92;100.00
27429;BME280;14881;48.092;11.574;2023-02-13T03:39:47;97273.72;;;0.84;100.00
27429;BME280;14881;48.092;11.574;2023-02-13T03:42:22;97273.72;;;0.84;100.00
27429;BME280;14881;48.092;11.574;2023-02-13T03:44:56;97275.09;;;0.80;100.00
27429;BME280;14881;48.092;11.574;2023-02-13T03:47:44;97267.53;;;0.68;100.00
27429;BME280;14881;48.092;11.574;2023-02-13T03:50:14;97273.31;;;0.72;100.00
27429;BME280;14881;48.092;11.574;2023-02-13T03:52:47;97274.53;;;0.84;100.00
27429;BME280;14881;48.092;11.574;2023-02-13T03:55:18;97278.94;;;0.77;100.00
27429;BME280;14881;48.092;11.574;2023-02-13T03:58:08;97274.44;;;0.78;100.00
27429;BME280;14881;48.092;11.574;2023-02-13T04:00:58;97273.97;;;0.89;100.00
27429;BME280;14881;48.092;11.574;2023-02-13T04:03:34;97281.91;;;0.82;100.00
27429;BME280;14881;48.092;11.574;2023-02-13T04:06:07;97277.03;;;0.86;100.00
27429;BME280;14881;48.092;11.574;2023-02-13T04:08:38;97280.44;;;0.80;100.00
27429;BME280;14881;48.092;11.574;2023-02-13T04:11:10;97277.66;;;0.73;100.00
27429;BME280;14881;48.092;11.574;2023-02-13T04:13:43;97279.06;;;0.84;100.00
27429;BME280;14881;48.092;11.574;2023-02-13T04:16:15;97280.63;;;0.78;100.00
27429;BME280;14881;48.092;11.574;2023-02-13T04:18:45;97283.00;;;0.73;100.00
27429;BME280;14881;48.092;11.574;2023-02-13T04:21:13;97277.47;;;0.75;100.00
27429;BME280;14881;48.092;11.574;2023-02-13T04:23:42;97281.06;;;0.82;100.00
27429;BME280;14881;48.092;11.574;2023-02-13T04:26:16;97277.94;;;0.78;100.00
27429;BME280;14881;48.092;11.574;2023-02-13T04:28:44;97277.47;;;0.75;100.00
27429;BME280;14881;48.092;11.574;2023-02-13T04:31:12;97276.09;;;0.79;100.00
27429;BME280;14881;48.092;11.574;2023-02-13T04:33:40;97278.13;;;0.77;100.00
27429;BME280;14881;48.092;11.574;2023-02-13T04:36:08;97279.31;;;0.74;100.00
27429;BME280;14881;48.092;11.574;2023-02-13T04:38:36;97284.00;;;0.72;100.00
27429;BME280;14881;48.092;11.574;2023-02-13T04:41:05;97277.00;;;0.71;100.00
27429;BME280;14881;48.092;11.574;2023-02-13T04:43:33;97273.88;;;0.67;100.00
27429;BME280;14881;48.092;11.574;2023-02-13T04:46:04;97274.91;;;0.66;100.00
27429;BME280;14881;48.092;11.574;2023-02-13T04:50:59;97272.28;;;0.58;100.00
27429;BME280;14881;48.092;11.574;2023-02-13T04:53:27;97277.81;;;0.57;100.00
27429;BME280;14881;48.092;11.574;2023-02-13T04:55:55;97276.28;;;0.62;100.00
27429;BME280;14881;48.092;11.574;2023-02-13T04:58:40;97272.84;;;0.54;100.00
27429;BME280;14881;48.092;11.574;2023-02-13T05:01:11;97272.56;;;0.49;100.00
27429;BME280;14881;48.092;11.574;2023-02-13T05:03:40;97273.94;;;0.45;100.00
27429;BME280;14881;48.092;11.574;2023-02-13T05:06:08;97266.09;;;0.43;100.00
27429;BME280;14881;48.092;11.574;2023-02-13T05:08:35;97275.59;;;0.46;100.00
27429;BME280;14881;48.092;11.574;2023-02-13T05:11:03;97274.97;;;0.44;100.00
27429;BME280;14881;48.092;11.574;2023-02-13T05:13:33;97281.41;;;0.34;100.00
27429;BME280;14881;48.092;11.574;2023-02-13T05:16:01;97280.19;;;0.37;100.00
27429;BME280;14881;48.092;11.574;2023-02-13T05:18:28;97284.44;;;0.31;100.00
27429;BME280;14881;48.092;11.574;2023-02-13T05:20:56;97280.47;;;0.27;100.00
27429;BME280;14881;48.092;11.574;2023-02-13T05:23:41;97285.28;;;0.32;100.00
27429;BME280;14881;48.092;11.574;2023-02-13T05:26:11;97281.41;;;0.34;100.00
27429;BME280;14881;48.092;11.574;2023-02-13T05:28:40;97286.09;;;0.32;100.00
27429;BME280;14881;48.092;11.574;2023-02-13T05:31:25;97290.06;;;0.37;100.00
27429;BME280;14881;48.092;11.574;2023-02-13T05:33:53;97281.66;;;0.40;100.00
27429;BME280;14881;48.092;11.574;2023-02-13T05:36:21;97290.69;;;0.39;100.00
27429;BME280;14881;48.092;11.574;2023-02-13T05:38:49;97290.06;;;0.37;100.00
27429;BME280;14881;48.092;11.574;2023-02-13T05:41:17;97286.38;;;0.38;100.00
27429;BME280;14881;48.092;11.574;2023-02-13T05:43:46;97293.38;;;0.39;100.00
27429;BME280;14881;48.092;11.574;2023-02-13T05:46:14;97292.91;;;0.35;100.00
27429;BME280;14881;48.092;11.574;2023-02-13T05:48:42;97293.09;;;0.33;100.00
27429;BME280;14881;48.092;11.574;2023-02-13T05:51:10;97291.63;;;0.31;100.00
27429;BME280;14881;48.092;11.574;2023-02-13T05:53:38;97301.66;;;0.29;100.00
27429;BME280;14881;48.092;11.574;2023-02-13T05:56:06;97295.47;;;0.28;100.00
27429;BME280;14881;48.092;11.574;2023-02-13T05:58:34;97303.16;;;0.31;100.00
27429;BME280;14881;48.092;11.574;2023-02-13T06:01:03;97301.47;;;0.30;100.00
27429;BME280;14881;48.092;11.574;2023-02-13T06:03:32;97304.16;;;0.30;100.00
27429;BME280;14881;48.092;11.574;2023-02-13T06:06:00;97310.69;;;0.28;100.00
27429;BME280;14881;48.092;11.574;2023-02-13T06:08:28;97301.66;;;0.29;100.00
27429;BME280;14881;48.092;11.574;2023-02-13T06:10:55;97302.50;;;0.29;100.00
27429;BME280;14881;48.092;11.574;2023-02-13T06:13:24;97315.72;;;0.23;100.00
27429;BME280;14881;48.092;11.574;2023-02-13T06:15:53;97307.72;;;0.23;100.00
27429;BME280;14881;48.092;11.574;2023-02-13T06:18:22;97311.75;;;0.19;100.00
27429;BME280;14881;48.092;11.574;2023-02-13T06:20:50;97314.97;;;0.14;100.00
27429;BME280;14881;48.092;11.574;2023-02-13T06:23:18;97318.31;;;0.16;100.00
27429;BME280;14881;48.092;11.574;2023-02-13T06:25:46;97322.38;;;0.27;100.00
27429;BME280;14881;48.092;11.574;2023-02-13T06:28:13;97321.84;;;0.31;100.00
27429;BME280;14881;48.092;11.574;2023-02-13T06:30:41;97331.16;;;0.35;100.00
27429;BME280;14881;48.092;11.574;2023-02-13T06:33:09;97320.00;;;0.32;100.00
27429;BME280;14881;48.092;11.574;2023-02-13T06:35:38;97325.53;;;0.30;100.00
27429;BME280;14881;48.092;11.574;2023-02-13T06:38:06;97322.22;;;0.28;100.00
27429;BME280;14881;48.092;11.574;2023-02-13T06:40:34;97330.88;;;0.30;100.00
27429;BME280;14881;48.092;11.574;2023-02-13T06:43:01;97326.91;;;0.26;100.00
27429;BME280;14881;48.092;11.574;2023-02-13T06:45:29;97331.16;;;0.35;100.00
27429;BME280;14881;48.092;11.574;2023-02-13T06:47:57;97322.97;;;0.37;100.00
27429;BME280;14881;48.092;11.574;2023-02-13T06:50:25;97338.28;;;0.43;100.00
27429;BME280;14881;48.092;11.574;2023-02-13T06:52:54;97337.63;;;0.41;100.00
27429;BME280;14881;48.092;11.574;2023-02-13T06:55:22;97330.31;;;0.35;100.00
27429;BME280;14881;48.092;11.574;2023-02-13T06:57:49;97332.47;;;0.40;100.00
27429;BME280;14881;48.092;11.574;2023-02-13T07:00:18;97329.53;;;0.34;100.00
27429;BME280;14881;48.092;11.574;2023-02-13T07:02:49;97333.00;;;0.35;100.00
27429;BME280;14881;48.092;11.574;2023-02-13T07:05:17;97333.00;;;0.35;100.00
27429;BME280;14881;48.092;11.574;2023-02-13T07:07:44;97333.81;;;0.35;100.00
27429;BME280;14881;48.092;11.574;2023-02-13T07:10:14;97345.09;;;0.31;100.00
27429;BME280;14881;48.092;11.574;2023-02-13T07:12:44;97342.06;;;0.34;100.00
27429;BME280;14881;48.092;11.574;2023-02-13T07:15:29;97350.00;;;0.42;100.00
27429;BME280;14881;48.092;11.574;2023-02-13T07:17:57;97352.47;;;0.44;100.00
27429;BME280;14881;48.092;11.574;2023-02-13T07:20:25;97356.81;;;0.45;100.00
27429;BME280;14881;48.092;11.574;2023-02-13T07:22:58;97355.38;;;0.57;100.00
27429;BME280;14881;48.092;11.574;2023-02-13T07:25:28;97353.88;;;0.54;100.00
27429;BME280;14881;48.092;11.574;2023-02-13T07:28:00;97357.50;;;0.61;100.00
27429;BME280;14881;48.092;11.574;2023-02-13T07:30:29;97363.50;;;0.63;100.00
27429;BME280;14881;48.092;11.574;2023-02-13T07:32:58;97363.88;;;0.60;100.00
27429;BME280;14881;48.092;11.574;2023-02-13T07:35:26;97373.03;;;0.66;100.00
27429;BME280;14881;48.092;11.574;2023-02-13T07:37:54;97378.09;;;0.76;100.00
27429;BME280;14881;48.092;11.574;2023-02-13T07:40:22;97370.19;;;0.82;100.00
27429;BME280;14881;48.092;11.574;2023-02-13T07:42:51;97371.75;;;0.77;100.00
27429;BME280;14881;48.092;11.574;2023-02-13T07:45:19;97372.75;;;0.76;100.00
27429;BME280;14881;48.092;11.574;2023-02-13T07:47:47;97372.88;;;0.82;100.00
27429;BME280;14881;48.092;11.574;2023-02-13T07:50:15;97377.03;;;0.85;100.00
27429;BME280;14881;48.092;11.574;2023-02-13T07:52:43;97380.53;;;0.85;100.00
27429;BME280;14881;48.092;11.574;2023-02-13T07:55:11;97381.25;;;0.79;100.00
27429;BME280;14881;48.092;11.574;2023-02-13T07:57:38;97380.72;;;0.84;100.00
27429;BME280;14881;48.092;11.574;2023-02-13T08:00:09;97392.41;;;0.68;100.00
27429;BME280;14881;48.092;11.574;2023-02-13T08:02:37;97383.91;;;0.79;100.00
27429;BME280;14881;48.092;11.574;2023-02-13T08:05:06;97383.81;;;0.87;100.00
27429;BME280;14881;48.092;11.574;2023-02-13T08:07:34;97391.97;;;0.94;100.00
27429;BME280;14881;48.092;11.574;2023-02-13T08:10:04;97396.78;;;0.98;100.00
27429;BME280;14881;48.092;11.574;2023-02-13T08:12:51;97395.13;;;0.97;100.00
27429;BME280;14881;48.092;11.574;2023-02-13T08:15:21;97395.84;;;1.06;100.00
27429;BME280;14881;48.092;11.574;2023-02-13T08:17:49;97401.69;;;1.10;100.00
27429;BME280;14881;48.092;11.574;2023-02-13T08:20:17;97388.03;;;1.34;100.00
27429;BME280;14881;48.092;11.574;2023-02-13T08:22:45;97390.25;;;1.30;100.00
27429;BME280;14881;48.092;11.574;2023-02-13T08:25:13;97388.22;;;1.32;100.00
27429;BME280;14881;48.092;11.574;2023-02-13T08:27:41;97390.97;;;1.39;100.00
27429;BME280;14881;48.092;11.574;2023-02-13T08:30:10;97388.41;;;1.46;100.00
27429;BME280;14881;48.092;11.574;2023-02-13T08:32:39;97388.31;;;1.54;100.00
27429;BME280;14881;48.092;11.574;2023-02-13T08:35:20;97384.03;;;1.59;100.00
27429;BME280;14881;48.092;11.574;2023-02-13T08:37:48;97383.19;;;1.73;100.00
27429;BME280;14881;48.092;11.574;2023-02-13T08:40:16;97380.34;;;1.60;100.00
27429;BME280;14881;48.092;11.574;2023-02-13T08:42:44;97385.06;;;1.58;100.00
27429;BME280;14881;48.092;11.574;2023-02-13T08:45:12;97380.91;;;1.70;100.00
27429;BME280;14881;48.092;11.574;2023-02-13T08:47:42;97379.88;;;1.57;100.00
27429;BME280;14881;48.092;11.574;2023-02-13T08:50:10;97386.91;;;1.58;100.00
27429;BME280;14881;48.092;11.574;2023-02-13T08:52:38;97384.97;;;1.66;100.00
27429;BME280;14881;48.092;11.574;2023-02-13T08:55:07;97384.78;;;1.68;100.00
27429;BME280;14881;48.092;11.574;2023-02-13T08:57:35;97383.19;;;1.73;100.00
27429;BME280;14881;48.092;11.574;2023-02-13T09:00:03;97381.72;;;1.71;100.00
27429;BME280;14881;48.092;11.574;2023-02-13T09:02:31;97387.63;;;1.66;100.00
27429;BME280;14881;48.092;11.574;2023-02-13T09:05:01;97389.41;;;1.45;100.00
27429;BME280;14881;48.092;11.574;2023-02-13T09:07:29;97385.91;;;1.44;100.00
27429;BME280;14881;48.092;11.574;2023-02-13T09:09:57;97389.59;;;1.43;100.00
27429;BME280;14881;48.092;11.574;2023-02-13T09:12:25;97397.19;;;1.54;100.00
27429;BME280;14881;48.092;11.574;2023-02-13T09:14:53;97393.28;;;1.57;100.00
27429;BME280;14881;48.092;11.574;2023-02-13T09:17:21;97394.09;;;1.57;100.00
27429;BME280;14881;48.092;11.574;2023-02-13T09:19:49;97395.13;;;1.56;100.00
27429;BME280;14881;48.092;11.574;2023-02-13T09:22:18;97398.38;;;1.52;100.00
27429;BME280;14881;48.092;11.574;2023-02-13T09:24:46;97405.66;;;1.58;100.00
27429;BME280;14881;48.092;11.574;2023-02-13T09:27:14;97403.22;;;1.78;100.00
27429;BME280;14881;48.092;11.574;2023-02-13T09:29:42;97403.50;;;1.83;100.00
27429;BME280;14881;48.092;11.574;2023-02-13T09:32:10;97402.13;;;1.87;100.00
27429;BME280;14881;48.092;11.574;2023-02-13T09:34:38;97402.38;;;1.92;100.00
27429;BME280;14881;48.092;11.574;2023-02-13T09:37:06;97400.09;;;1.89;100.00
27429;BME280;14881;48.092;11.574;2023-02-13T09:39:36;97392.63;;;1.69;100.00
27429;BME280;14881;48.092;11.574;2023-02-13T09:42:13;97389.97;;;1.55;100.00
27429;BME280;14881;48.092;11.574;2023-02-13T09:44:45;97399.84;;;1.54;100.00
27429;BME280;14881;48.092;11.574;2023-02-13T09:47:20;97390.41;;;1.58;100.00
27429;BME280;14881;48.092;11.574;2023-02-13T09:49:53;97397.25;;;1.61;100.00
27429;BME280;14881;48.092;11.574;2023-02-13T09:52:22;97397.25;;;1.61;100.00
27429;BME280;14881;48.092;11.574;2023-02-13T09:54:54;97399.84;;;1.69;100.00
27429;BME280;14881;48.092;11.574;2023-02-13T09:57:26;97405.38;;;1.67;100.00
27429;BME280;14881;48.092;11.574;2023-02-13T10:00:05;97400.34;;;1.79;100.00
27429;BME280;14881;48.092;11.574;2023-02-13T10:02:52;97398.66;;;2.07;100.00
27429;BME280;14881;48.092;11.574;2023-02-13T10:05:32;97396.91;;;2.00;100.00
27429;BME280;14881;48.092;11.574;2023-02-13T10:08:10;97406.00;;;1.84;100.00
27429;BME280;14881;48.092;11.574;2023-02-13T10:10:51;97400.53;;;1.78;100.00
27429;BME280;14881;48.092;11.574;2023-02-13T10:13:43;97407.34;;;1.95;100.00
27429;BME280;14881;48.092;11.574;2023-02-13T10:16:15;97400.16;;;1.95;100.00
27429;BME280;14881;48.092;11.574;2023-02-13T10:18:49;97400.69;;;2.05;100.00
27429;BME280;14881;48.092;11.574;2023-02-13T10:21:20;97395.31;;;2.05;100.00
27429;BME280;14881;48.092;11.574;2023-02-13T10:23:59;97402.94;;;2.23;100.00
27429;BME280;14881;48.092;11.574;2023-02-13T10:26:33;97398.00;;;2.27;100.00
27429;BME280;14881;48.092;11.574;2023-02-13T10:29:16;97397.06;;;2.34;100.00
27429;BME280;14881;48.092;11.574;2023-02-13T10:32:08;97390.03;;;2.33;100.00
27429;BME280;14881;48.092;11.574;2023-02-13T10:34:41;97383.47;;;2.36;100.00
27429;BME280;14881;48.092;11.574;2023-02-13T10:37:13;97384.56;;;2.41;100.00
27429;BME280;14881;48.092;11.574;2023-02-13T10:39:44;97383.47;;;2.36;100.00
27429;BME280;14881;48.092;11.574;2023-02-13T10:42:20;97389.09;;;2.41;100.00
27429;BME280;14881;48.092;11.574;2023-02-13T10:45:04;97387.25;;;2.41;100.00
27429;BME280;14881;48.092;11.574;2023-02-13T10:47:54;97383.28;;;2.37;100.00
27429;BME280;14881;48.092;11.574;2023-02-13T10:50:29;97379.78;;;2.37;100.00
27429;BME280;14881;48.092;11.574;2023-02-13T10:53:10;97377.66;;;2.32;100.00
27429;BME280;14881;48.092;11.574;2023-02-13T10:55:59;97378.13;;;2.36;100.00
27429;BME280;14881;48.092;11.574;2023-02-13T10:58:40;97380.22;;;2.19;100.00
27429;BME280;14881;48.092;11.574;2023-02-13T11:01:16;97378.50;;;2.33;100.00
27429;BME280;14881;48.092;11.574;2023-02-13T11:03:48;97373.13;;;2.33;100.00
27429;BME280;14881;48.092;11.574;2023-02-13T11:06:27;97372.28;;;2.54;100.00
27429;BME280;14881;48.092;11.574;2023-02-13T11:08:57;97361.00;;;2.58;100.00
27429;BME280;14881;48.092;11.574;2023-02-13T11:11:30;97364.66;;;2.78;100.00
27429;BME280;14881;48.092;11.574;2023-02-13T11:14:14;97358.03;;;3.02;100.00
27429;BME280;14881;48.092;11.574;2023-02-13T11:16:48;97357.94;;;2.89;100.00
27429;BME280;14881;48.092;11.574;2023-02-13T11:19:21;97353.50;;;2.75;100.00
27429;BME280;14881;48.092;11.574;2023-02-13T11:21:53;97347.78;;;2.85;100.00
27429;BME280;14881;48.092;11.574;2023-02-13T11:24:23;97350.53;;;2.91;100.00
27429;BME280;14881;48.092;11.574;2023-02-13T11:26:57;97349.06;;;2.89;100.00
27429;BME280;14881;48.092;11.574;2023-02-13T11:29:28;97344.59;;;3.02;100.00
27429;BME280;14881;48.092;11.574;2023-02-13T11:32:06;97344.84;;;3.07;100.00
27429;BME280;14881;48.092;11.574;2023-02-13T11:34:38;97348.38;;;3.14;100.00
27429;BME280;14881;48.092;11.574;2023-02-13T11:37:18;97336.47;;;3.24;100.00
27429;BME280;14881;48.092;11.574;2023-02-13T11:39:47;97349.50;;;3.27;100.00
27429;BME280;14881;48.092;11.574;2023-02-13T11:42:22;97344.78;;;3.35;100.00
27429;BME280;14881;48.092;11.574;2023-02-13T11:44:55;97344.41;;;3.38;100.00
27429;BME280;14881;48.092;11.574;2023-02-13T11:47:36;97342.25;;;3.62;100.00
27429;BME280;14881;48.092;11.574;2023-02-13T11:50:18;97341.78;;;3.52;100.00
27429;BME280;14881;48.092;11.574;2023-02-13T11:52:56;97339.81;;;3.73;100.00
27429;BME280;14881;48.092;11.574;2023-02-13T11:55:30;97338.59;;;3.82;100.00
27429;BME280;14881;48.092;11.574;2023-02-13T11:58:01;97338.84;;;3.46;100.00
27429;BME280;14881;48.092;11.574;2023-02-13T12:00:33;97335.78;;;3.49;100.00
27429;BME280;14881;48.092;11.574;2023-02-13T12:03:25;97337.41;;;3.44;100.00
27429;BME280;14881;48.092;11.574;2023-02-13T12:06:02;97335.75;;;3.43;100.00
27429;BME280;14881;48.092;11.574;2023-02-13T12:08:33;97328.63;;;3.63;100.00
27429;BME280;14881;48.092;11.574;2023-02-13T12:11:05;97340.63;;;3.74;100.00
27429;BME280;14881;48.092;11.574;2023-02-13T12:13:37;97333.84;;;3.84;100.00
27429;BME280;14881;48.092;11.574;2023-02-13T12:16:13;97334.50;;;4.00;100.00
27429;BME280;14881;48.092;11.574;2023-02-13T12:18:47;97337.47;;;4.11;100.00
27429;BME280;14881;48.092;11.574;2023-02-13T12:21:41;97326.44;;;4.00;100.00
27429;BME280;14881;48.092;11.574;2023-02-13T12:24:37;97319.84;;;4.02;100.00
27429;BME280;14881;48.092;11.574;2023-02-13T12:27:17;97322.28;;;3.91;100.00
27429;BME280;14881;48.092;11.574;2023-02-13T12:30:08;97319.22;;;4.07;100.00
27429;BME280;14881;48.092;11.574;2023-02-13T12:32:47;97314.88;;;4.06;100.00
27429;BME280;14881;48.092;11.574;2023-02-13T12:35:38;97304.78;;;4.21;100.00
27429;BME280;14881;48.092;11.574;2023-02-13T12:38:18;97296.53;;;4.42;100.00
27429;BME280;14881;48.092;11.574;2023-02-13T12:41:08;97291.75;;;4.31;100.00
27429;BME280;14881;48.092;11.574;2023-02-13T12:47:00;97289.63;;;3.94;100.00
27429;BME280;14881;48.092;11.574;2023-02-13T12:49:55;97294.63;;;4.10;100.00
27429;BME280;14881;48.092;11.574;2023-02-13T12:52:38;97287.75;;;4.01;100.00
27429;BME280;14881;48.092;11.574;2023-02-13T12:55:47;97287.81;;;4.20;100.00
27429;BME280;14881;48.092;11.574;2023-02-13T12:58:35;97288.84;;;4.26;100.00
27429;BME280;14881;48.092;11.574;2023-02-13T13:01:15;97287.59;;;4.55;100.00
27429;BME280;14881;48.092;11.574;2023-02-13T13:03:53;97276.84;;;4.62;100.00
27429;BME280;14881;48.092;11.574;2023-02-13T13:06:37;97278.28;;;4.38;100.00
27429;BME280;14881;48.092;11.574;2023-02-13T13:12:14;97281.19;;;4.63;100.00
27429;BME280;14881;48.092;11.574;2023-02-13T13:14:53;97279.34;;;4.63;100.00
27429;BME280;14881;48.092;11.574;2023-02-13T13:17:34;97280.78;;;4.39;100.00
27429;BME280;14881;48.092;11.574;2023-02-13T13:20:25;97281.22;;;4.49;100.00
27429;BME280;14881;48.092;11.574;2023-02-13T13:23:03;97285.97;;;4.61;100.00
27429;BME280;14881;48.092;11.574;2023-02-13T13:25:33;97282.03;;;4.57;100.00
27429;BME280;14881;48.092;11.574;2023-02-13T13:28:06;97277.66;;;4.69;100.00
27429;BME280;14881;48.092;11.574;2023-02-13T13:30:42;97292.38;;;4.53;100.00
27429;BME280;14881;48.092;11.574;2023-02-13T13:33:15;97281.75;;;5.04;100.00
27429;BME280;14881;48.092;11.574;2023-02-13T13:35:56;97281.13;;;5.15;100.00